Terminal Aerodrome Forecast
Issued by NWS Melbourne, FL

Current Version | Previous Version | Text Only | Print | Product List | Glossary On
Versions: 1 2 3 4 5 6 7 8 9 10 11 12 13 14 15 16 17 18 19 20 21 22 23 24
000
FTUS42 KMLB 280800 AAA
TAFMCO
TAF AMD
KMCO 280856Z 2809/2906 01004KT P6SM FEW070
     FM281500 10008KT P6SM SCT040 SCT150
     FM290200 10003KT P6SM FEW050=

USA.gov is the U.S. government's official web portal to all federal, state and local government web resources and services.